Time;durP1;ratioP1;P1;durP2;ratioP2;P2;SDS_P1;SDS_P2;PMS_P1;PMS_P2;Temp;Humidity;BMP_temperature;BMP_pressure;BME280_temperature;BME280_humidity;BME280_pressure;Samples;Min_cycle;Max_cycle;Signal;HPM_P1;HPM_P2
2022/07/06 00:00:50;;;;;;;10.98;8.15;;;;;;;21.29;73.13;95429.97;5006879;28;20022;-81
2022/07/06 00:03:15;;;;;;;10.57;8.70;;;;;;;21.34;73.38;95438.25;5021603;28;20033;-80
2022/07/06 00:05:41;;;;;;;11.60;8.60;;;;;;;21.33;73.28;95435.75;5006960;28;20061;-81
2022/07/06 00:08:06;;;;;;;11.38;8.20;;;;;;;21.32;73.04;95440.38;5004910;28;20026;-80
2022/07/06 00:10:32;;;;;;;13.40;8.60;;;;;;;21.35;72.43;95434.44;5006504;28;20030;-81
2022/07/06 00:12:57;;;;;;;12.07;8.02;;;;;;;21.38;72.46;95438.56;5004833;28;20037;-82
2022/07/06 00:15:22;;;;;;;11.95;7.95;;;;;;;21.43;72.33;95432.38;5006152;28;20033;-81
2022/07/06 00:17:48;;;;;;;8.65;7.57;;;;;;;21.44;71.08;95439.50;5005175;28;20026;-82
2022/07/06 00:20:13;;;;;;;10.05;7.32;;;;;;;21.39;72.00;95440.25;5006499;28;20041;-81
2022/07/06 00:22:39;;;;;;;10.32;7.50;;;;;;;21.44;71.61;95442.22;5005326;28;20029;-82
2022/07/06 00:25:05;;;;;;;9.75;7.35;;;;;;;21.58;71.10;95448.19;4988654;28;20037;-82
2022/07/06 00:27:30;;;;;;;9.18;6.95;;;;;;;21.56;71.07;95445.72;5006096;28;20036;-81
2022/07/06 00:29:56;;;;;;;9.18;7.00;;;;;;;21.66;71.06;95438.75;4971915;28;20030;-82
2022/07/06 00:32:21;;;;;;;9.68;7.30;;;;;;;21.72;71.17;95440.50;5005820;28;20026;-82
2022/07/06 00:34:47;;;;;;;12.00;7.32;;;;;;;21.76;70.24;95436.22;5004902;28;20026;-82
2022/07/06 00:37:15;;;;;;;8.68;7.00;;;;;;;21.75;69.92;95431.81;5005511;28;20029;-81
2022/07/06 00:39:41;;;;;;;16.33;7.90;;;;;;;21.69;69.60;95432.81;5005557;28;20501;-82
2022/07/06 00:42:07;;;;;;;13.35;7.07;;;;;;;21.63;69.87;95445.56;4988368;28;20045;-82
2022/07/06 00:44:33;;;;;;;9.32;7.03;;;;;;;21.65;69.92;95448.03;4989426;28;20412;-82
2022/07/06 00:46:59;;;;;;;11.23;7.40;;;;;;;21.66;69.77;95445.06;5004653;28;20110;-81
2022/07/06 00:52:11;;;;;;;8.68;7.43;;;;;;;21.65;70.34;95437.94;5005015;28;20057;-81
2022/07/06 00:54:37;;;;;;;10.93;7.50;;;;;;;21.56;70.15;95433.97;4989063;28;20088;-81
2022/07/06 00:57:02;;;;;;;9.90;6.82;;;;;;;21.58;69.46;95427.19;4988834;28;20034;-82
2022/07/06 00:59:28;;;;;;;11.25;7.20;;;;;;;21.56;70.04;95414.84;5004905;28;20033;-80
2022/07/06 01:01:53;;;;;;;10.02;7.53;;;;;;;21.50;70.41;95411.22;5005397;28;20065;-82
2022/07/06 01:04:19;;;;;;;11.52;8.05;;;;;;;21.43;70.95;95410.53;5006134;28;20049;-81
2022/07/06 01:06:47;;;;;;;8.85;7.53;;;;;;;21.43;70.63;95405.09;5006958;28;20029;-81
2022/07/06 01:09:13;;;;;;;9.27;7.35;;;;;;;21.42;70.69;95403.44;5004616;28;20111;-82
2022/07/06 01:11:38;;;;;;;13.43;8.05;;;;;;;21.36;70.65;95403.34;5005445;28;20038;-81
2022/07/06 01:14:04;;;;;;;13.68;7.93;;;;;;;21.28;72.01;95403.75;5004758;28;20037;-82
2022/07/06 01:16:30;;;;;;;10.05;7.65;;;;;;;21.25;71.22;95404.25;5005878;28;20030;-82
2022/07/06 01:18:55;;;;;;;9.02;7.68;;;;;;;21.31;71.65;95400.53;5008960;28;20103;-81
2022/07/06 01:21:21;;;;;;;9.80;7.05;;;;;;;21.33;71.23;95401.13;4992181;28;20759;-81
2022/07/06 01:23:47;;;;;;;12.48;7.43;;;;;;;21.31;71.34;95410.63;5010851;28;20441;-81
2022/07/06 01:26:19;;;;;;;11.77;7.82;;;;;;;21.26;70.86;95407.81;5009443;28;20370;-81
2022/07/06 01:28:45;;;;;;;11.85;8.05;;;;;;;21.24;71.51;95405.34;5009336;28;20061;-80
2022/07/06 01:31:21;;;;;;;12.45;7.90;;;;;;;21.01;71.07;95401.66;5009426;28;20041;-83
2022/07/06 01:33:48;;;;;;;10.82;7.68;;;;;;;20.86;71.31;95407.63;5008513;28;20030;-81
2022/07/06 01:36:14;;;;;;;9.27;8.30;;;;;;;20.70;71.01;95403.78;5008455;28;20571;-81
2022/07/06 01:38:53;;;;;;;8.90;7.80;;;;;;;20.65;71.02;95401.75;5008435;28;20034;-81
2022/07/06 01:41:18;;;;;;;10.02;7.80;;;;;;;20.58;71.14;95401.91;4976283;28;20050;-81
2022/07/06 01:43:44;;;;;;;11.40;8.02;;;;;;;20.41;72.22;95398.28;5007873;28;20046;-81
2022/07/06 01:46:09;;;;;;;10.25;7.65;;;;;;;20.37;71.85;95396.03;4976082;28;20089;-81
2022/07/06 01:48:35;;;;;;;13.65;8.20;;;;;;;20.20;72.60;95395.94;5008378;28;20022;-81
2022/07/06 01:51:00;;;;;;;9.23;7.47;;;;;;;20.29;71.93;95401.84;4991963;28;20120;-81
2022/07/06 01:53:26;;;;;;;12.50;7.22;;;;;;;20.30;71.89;95391.78;5008438;28;20045;-80
2022/07/06 01:55:51;;;;;;;11.52;7.65;;;;;;;20.13;72.92;95401.50;5008045;28;20413;-81
2022/07/06 01:58:17;;;;;;;9.90;8.15;;;;;;;20.25;72.25;95406.13;5008319;28;20052;-81
2022/07/06 02:00:42;;;;;;;12.43;7.65;;;;;;;20.32;71.48;95409.56;4991174;28;20099;-81
2022/07/06 02:03:08;;;;;;;10.10;7.03;;;;;;;20.46;71.26;95412.81;4992326;28;20026;-81
2022/07/06 02:05:33;;;;;;;9.55;7.53;;;;;;;20.45;70.80;95416.63;5007889;28;20029;-82
2022/07/06 02:07:58;;;;;;;10.48;7.72;;;;;;;20.49;70.65;95414.25;5008709;28;20033;-81
2022/07/06 02:10:24;;;;;;;10.50;7.10;;;;;;;20.35;70.68;95417.25;5009208;28;20377;-82
2022/07/06 02:12:49;;;;;;;11.85;7.47;;;;;;;20.42;70.27;95402.66;4975660;28;20026;-79
2022/07/06 02:15:15;;;;;;;8.88;7.05;;;;;;;20.37;70.19;95403.38;5009092;28;20022;-81
2022/07/06 02:17:40;;;;;;;11.85;7.25;;;;;;;20.31;70.05;95407.91;4975217;28;20014;-81
2022/07/06 02:20:06;;;;;;;10.60;7.22;;;;;;;20.33;69.94;95408.47;5009885;28;20483;-81
2022/07/06 02:22:32;;;;;;;7.57;6.82;;;;;;;20.35;69.56;95406.34;5007463;28;20026;-81
2022/07/06 02:24:57;;;;;;;7.95;6.82;;;;;;;20.34;69.50;95398.41;4991872;28;20037;-81
2022/07/06 02:27:22;;;;;;;9.02;6.95;;;;;;;20.30;69.71;95392.63;5007997;28;20033;-81
2022/07/06 02:29:48;;;;;;;9.25;7.15;;;;;;;20.14;70.47;95399.63;5008271;28;20036;-81
2022/07/06 02:32:13;;;;;;;9.07;7.25;;;;;;;20.07;70.58;95398.94;5007532;28;20040;-82
2022/07/06 02:34:39;;;;;;;12.73;7.80;;;;;;;19.97;70.53;95404.94;5007284;28;20037;-81
2022/07/06 02:37:04;;;;;;;12.10;7.43;;;;;;;20.01;70.89;95392.50;4991433;28;20033;-82
2022/07/06 02:39:30;;;;;;;8.90;6.38;;;;;;;20.06;70.88;95403.53;4990552;28;20444;-81
2022/07/06 02:41:55;;;;;;;8.43;6.68;;;;;;;20.08;70.53;95395.97;5007667;28;20068;-82
2022/07/06 02:44:20;;;;;;;9.20;7.00;;;;;;;19.97;70.45;95399.50;5006694;28;20404;-81
2022/07/06 02:46:46;;;;;;;12.40;7.50;;;;;;;19.94;69.94;95402.69;5009786;28;20401;-81
2022/07/06 02:49:11;;;;;;;10.40;6.80;;;;;;;20.10;69.52;95401.19;5008269;28;20460;-82
2022/07/06 02:51:37;;;;;;;7.10;6.40;;;;;;;20.16;69.44;95396.66;5007746;28;20048;-81
2022/07/06 02:54:02;;;;;;;10.10;6.72;;;;;;;20.19;70.11;95396.19;5007326;28;20029;-82
2022/07/06 02:56:28;;;;;;;8.00;6.78;;;;;;;20.22;70.47;95404.72;5008037;28;20029;-81
2022/07/06 02:58:53;;;;;;;10.52;6.95;;;;;;;20.25;69.10;95403.38;5007484;28;20030;-81
2022/07/06 03:01:19;;;;;;;9.13;6.88;;;;;;;20.29;69.74;95415.47;5007827;28;20030;-81
2022/07/06 03:03:44;;;;;;;11.00;7.45;;;;;;;20.31;69.82;95416.06;5007417;28;20041;-82
2022/07/06 03:06:10;;;;;;;11.35;8.43;;;;;;;20.32;69.66;95416.88;5006342;28;20053;-82
2022/07/06 03:08:35;;;;;;;12.38;7.35;;;;;;;20.36;70.00;95412.63;4990862;28;20029;-81
2022/07/06 03:11:01;;;;;;;8.05;7.00;;;;;;;20.35;69.49;95417.25;5008151;28;20450;-81
2022/07/06 03:13:27;;;;;;;7.53;6.65;;;;;;;20.42;69.23;95413.56;5006856;28;20025;-81
2022/07/06 03:15:53;;;;;;;15.65;7.70;;;;;;;20.41;69.30;95422.81;4990607;28;20609;-82
2022/07/06 03:18:18;;;;;;;10.18;7.22;;;;;;;20.42;69.70;95416.28;5006265;28;20053;-82
2022/07/06 03:20:43;;;;;;;13.10;7.20;;;;;;;20.41;69.22;95426.34;5008180;28;20412;-82
2022/07/06 03:23:09;;;;;;;10.00;6.93;;;;;;;20.34;69.11;95420.19;5006440;28;20058;-82
2022/07/06 03:25:34;;;;;;;11.68;7.05;;;;;;;20.40;68.34;95423.84;5007306;28;20440;-82
2022/07/06 03:28:00;;;;;;;7.78;6.68;;;;;;;20.40;68.06;95432.03;5007550;28;20049;-82
2022/07/06 03:30:25;;;;;;;8.60;7.35;;;;;;;20.36;68.38;95432.50;5023763;28;20416;-82
2022/07/06 03:32:51;;;;;;;9.05;7.07;;;;;;;20.44;67.48;95430.50;5008647;28;20022;-82
2022/07/06 03:35:16;;;;;;;8.82;6.88;;;;;;;20.45;67.24;95430.25;5006699;28;20401;-82
2022/07/06 03:37:42;;;;;;;11.45;6.78;;;;;;;20.47;68.28;95435.47;5006668;28;20033;-83
2022/07/06 03:40:08;;;;;;;10.30;6.95;;;;;;;20.50;68.58;95440.44;5005644;28;20029;-82
2022/07/06 03:42:33;;;;;;;10.50;6.80;;;;;;;20.48;67.59;95437.09;5007059;28;20037;-82
2022/07/06 03:44:59;;;;;;;10.30;6.68;;;;;;;20.54;66.72;95436.13;5007262;28;20029;-82
2022/07/06 03:47:24;;;;;;;13.13;8.07;;;;;;;20.50;67.13;95437.69;5008495;28;20022;-83
2022/07/06 03:49:49;;;;;;;9.07;7.18;;;;;;;20.46;67.00;95445.50;4989724;28;20036;-82
2022/07/06 03:52:15;;;;;;;10.70;6.68;;;;;;;20.40;67.13;95451.09;5006642;28;20496;-83
2022/07/06 03:54:40;;;;;;;9.73;7.00;;;;;;;20.29;67.60;95445.44;5006063;28;20386;-82
2022/07/06 03:57:06;;;;;;;8.63;6.38;;;;;;;20.24;68.05;95439.88;5006070;28;20029;-82
2022/07/06 03:59:31;;;;;;;8.90;6.95;;;;;;;20.31;68.49;95437.03;4990013;28;20022;-82
2022/07/06 04:01:57;;;;;;;9.10;6.85;;;;;;;20.41;68.21;95439.94;5006737;28;20463;-82
2022/07/06 04:04:22;;;;;;;8.95;6.70;;;;;;;20.46;68.12;95447.41;4973834;28;20761;-81
2022/07/06 04:06:48;;;;;;;11.55;7.28;;;;;;;20.49;67.90;95450.47;4972436;28;20033;-81
2022/07/06 04:09:13;;;;;;;7.43;5.68;;;;;;;20.47;67.39;95454.53;4990064;28;20022;-81
2022/07/06 04:11:38;;;;;;;9.18;6.00;;;;;;;20.11;68.88;95454.56;4989188;28;20030;-81
2022/07/06 04:14:04;;;;;;;6.97;5.65;;;;;;;20.36;68.29;95459.72;5006780;28;20825;-82
2022/07/06 04:16:29;;;;;;;8.38;5.93;;;;;;;20.51;67.89;95452.97;5006831;28;20041;-82
2022/07/06 04:18:55;;;;;;;8.85;6.07;;;;;;;20.47;67.85;95455.34;5006155;28;20029;-82
2022/07/06 04:21:20;;;;;;;11.18;6.13;;;;;;;20.50;67.73;95462.22;5006890;28;20517;-82
2022/07/06 04:23:46;;;;;;;7.32;5.88;;;;;;;20.48;67.98;95461.63;5005077;28;20029;-82
2022/07/06 04:26:11;;;;;;;8.18;6.30;;;;;;;20.50;68.27;95456.78;5007036;28;20021;-82
2022/07/06 04:28:37;;;;;;;6.82;6.00;;;;;;;20.57;68.17;95467.53;5005001;28;20026;-82
2022/07/06 04:31:02;;;;;;;8.38;6.10;;;;;;;20.70;67.70;95472.72;4989245;28;20035;-82
2022/07/06 04:33:28;;;;;;;12.25;6.15;;;;;;;20.74;67.79;95475.78;4989201;28;20480;-83
2022/07/06 04:35:53;;;;;;;10.60;6.47;;;;;;;20.92;67.41;95474.00;5005015;28;20030;-82
2022/07/06 04:38:19;;;;;;;8.50;6.40;;;;;;;21.04;67.25;95484.88;5005708;28;20026;-83
2022/07/06 04:40:46;;;;;;;9.43;7.22;;;;;;;21.10;67.03;95487.44;5004557;28;20349;-79
2022/07/06 04:43:12;;;;;;;10.10;7.03;;;;;;;21.06;66.86;95486.28;5005430;28;20136;-82
2022/07/06 04:45:37;;;;;;;12.70;8.25;;;;;;;21.12;66.63;95490.75;4988312;28;20042;-81
2022/07/06 04:48:03;;;;;;;13.30;8.70;;;;;;;21.18;66.74;95494.41;5007008;28;20033;-82
2022/07/06 04:50:28;;;;;;;11.13;8.18;;;;;;;20.92;67.83;95484.88;5006664;28;20022;-81
2022/07/06 04:52:55;;;;;;;16.10;8.70;;;;;;;20.88;67.95;95496.25;4989187;28;20026;-82
2022/07/06 04:55:21;;;;;;;14.88;9.38;;;;;;;20.82;68.52;95496.38;5005174;28;20033;-83
2022/07/06 04:57:46;;;;;;;12.48;9.57;;;;;;;20.79;68.92;95497.69;5006518;28;20033;-82
2022/07/06 05:00:12;;;;;;;13.13;8.90;;;;;;;20.55;69.54;95497.75;5004939;28;20037;-82
2022/07/06 05:02:38;;;;;;;15.25;9.38;;;;;;;20.55;69.35;95503.19;5004432;28;20466;-82
2022/07/06 05:05:04;;;;;;;12.85;9.60;;;;;;;20.48;69.74;95502.47;5005335;28;20033;-82
2022/07/06 05:07:30;;;;;;;12.80;9.60;;;;;;;20.53;69.36;95499.03;5004526;28;20447;-82
2022/07/06 05:09:56;;;;;;;12.55;9.60;;;;;;;20.75;68.81;95505.53;4989959;28;20030;-82
2022/07/06 05:12:22;;;;;;;13.63;9.90;;;;;;;20.67;69.19;95508.59;5004754;28;20022;-82
2022/07/06 05:14:47;;;;;;;17.23;9.75;;;;;;;20.95;69.12;95517.97;5004659;28;20052;-82
2022/07/06 05:17:12;;;;;;;15.55;10.32;;;;;;;21.01;68.31;95521.59;5004889;28;20026;-83
2022/07/06 05:19:38;;;;;;;20.35;10.95;;;;;;;21.00;69.00;95517.22;5005964;28;20034;-84
2022/07/06 05:22:03;;;;;;;11.75;9.07;;;;;;;21.26;67.85;95520.47;5005103;28;20043;-83
2022/07/06 05:24:29;;;;;;;14.82;9.50;;;;;;;21.18;67.91;95520.84;5004191;28;20485;-83
2022/07/06 05:26:54;;;;;;;11.23;9.13;;;;;;;21.38;66.65;95525.06;5006573;28;20038;-83
2022/07/06 05:29:20;;;;;;;14.70;9.25;;;;;;;21.27;67.07;95519.38;4988053;28;20033;-84
2022/07/06 05:31:45;;;;;;;11.77;9.23;;;;;;;21.46;66.28;95519.19;5005272;28;20044;-82
2022/07/06 05:34:11;;;;;;;12.90;9.15;;;;;;;21.54;65.71;95521.50;5004828;28;20026;-83
2022/07/06 05:36:36;;;;;;;12.65;9.18;;;;;;;21.59;66.37;95532.53;5004513;28;20063;-83
2022/07/06 05:39:02;;;;;;;14.63;10.23;;;;;;;21.46;65.93;95522.75;5006486;28;20066;-81
2022/07/06 05:41:27;;;;;;;11.90;9.80;;;;;;;21.45;65.82;95528.44;4991720;28;20046;-82
2022/07/06 05:43:53;;;;;;;14.50;9.80;;;;;;;21.46;66.33;95530.09;5005415;28;20026;-83
2022/07/06 05:46:18;;;;;;;14.05;10.25;;;;;;;21.33;66.39;95528.47;4971521;28;20034;-83
2022/07/06 05:51:27;;;;;;;12.52;9.18;;;;;;;21.40;65.77;95531.06;5006077;28;20045;-84
2022/07/06 05:53:53;;;;;;;16.63;10.25;;;;;;;21.23;66.16;95529.94;4971937;28;20022;-82
2022/07/06 05:56:18;;;;;;;13.98;10.10;;;;;;;21.20;67.01;95535.06;4987903;28;20038;-83
2022/07/06 05:58:44;;;;;;;12.38;9.25;;;;;;;21.04;67.25;95534.75;4987723;28;20569;-82
2022/07/06 06:01:09;;;;;;;15.38;10.32;;;;;;;21.18;67.49;95543.50;5006339;28;20029;-83
2022/07/06 06:03:35;;;;;;;11.65;9.95;;;;;;;21.11;68.04;95543.63;5006511;28;20166;-83
2022/07/06 06:06:00;;;;;;;14.25;9.82;;;;;;;21.07;67.07;95537.00;5008567;28;20017;-81
2022/07/06 06:08:26;;;;;;;13.88;9.63;;;;;;;21.23;66.98;95534.59;4991099;28;20469;-81
2022/07/06 06:10:52;;;;;;;11.63;9.98;;;;;;;21.23;66.55;95535.41;4991792;28;20112;-81
2022/07/06 06:13:18;;;;;;;11.10;9.73;;;;;;;21.18;67.27;95531.75;4991916;28;20022;-82
2022/07/06 06:15:43;;;;;;;16.00;8.52;;;;;;;21.15;66.96;95527.59;4991052;28;20105;-82
2022/07/06 06:18:09;;;;;;;14.40;9.48;;;;;;;20.88;68.13;95528.13;5008092;28;20045;-82
2022/07/06 06:20:34;;;;;;;14.10;8.98;;;;;;;20.94;67.77;95529.09;5008239;28;20025;-81
2022/07/06 06:23:00;;;;;;;12.38;10.00;;;;;;;20.93;67.58;95527.44;5008220;28;20033;-83
2022/07/06 06:25:32;;;;;;;14.65;9.52;;;;;;;21.03;66.63;95530.38;5006901;28;20021;-83
2022/07/06 06:27:58;;;;;;;12.88;9.32;;;;;;;20.87;66.85;95532.75;5007761;28;20488;-81
2022/07/06 06:30:23;;;;;;;13.35;9.75;;;;;;;20.73;67.31;95523.19;5007209;28;20030;-82
2022/07/06 06:32:49;;;;;;;12.90;9.35;;;;;;;20.78;67.20;95526.00;4990996;28;20021;-81
2022/07/06 06:35:14;;;;;;;13.32;9.38;;;;;;;20.91;67.49;95526.81;5007368;28;20033;-82
2022/07/06 06:37:40;;;;;;;14.10;9.90;;;;;;;20.90;66.62;95525.16;4990344;28;20036;-82
2022/07/06 06:40:06;;;;;;;13.35;9.30;;;;;;;20.88;66.90;95528.97;5007706;28;20477;-82
2022/07/06 06:42:32;;;;;;;13.20;9.32;;;;;;;21.01;66.53;95518.06;4990115;28;20116;-82
2022/07/06 06:44:57;;;;;;;12.43;10.02;;;;;;;21.04;66.30;95526.56;5007764;28;20080;-82
2022/07/06 06:47:23;;;;;;;22.25;9.18;;;;;;;21.25;66.04;95513.34;5006746;28;20526;-83
2022/07/06 06:49:48;;;;;;;14.00;9.50;;;;;;;21.40;65.42;95518.28;5006878;28;20481;-82
2022/07/06 06:52:14;;;;;;;12.32;9.07;;;;;;;21.49;65.83;95518.69;4974567;28;20165;-82
2022/07/06 06:54:39;;;;;;;11.43;9.68;;;;;;;21.32;65.13;95514.03;5006382;28;20030;-81
2022/07/06 06:57:05;;;;;;;12.45;9.57;;;;;;;21.28;65.19;95512.84;5007205;28;20038;-81
2022/07/06 06:59:30;;;;;;;10.90;8.63;;;;;;;21.33;64.08;95514.84;5006488;28;20436;-82
2022/07/06 07:01:56;;;;;;;12.15;9.43;;;;;;;21.31;63.52;95509.63;5008672;28;20404;-81
2022/07/06 07:04:21;;;;;;;10.75;9.07;;;;;;;21.41;63.43;95514.47;5006389;28;20026;-82
2022/07/06 07:06:46;;;;;;;15.32;9.50;;;;;;;21.35;63.54;95505.38;5007252;28;20085;-83
2022/07/06 07:09:12;;;;;;;11.52;9.65;;;;;;;21.23;63.78;95508.13;5006467;28;20040;-82
2022/07/06 07:11:37;;;;;;;13.20;10.35;;;;;;;21.21;64.27;95504.00;5006561;28;20029;-82
2022/07/06 07:14:03;;;;;;;12.55;10.63;;;;;;;21.46;64.05;95511.81;5005802;28;20026;-84
2022/07/06 07:16:28;;;;;;;11.80;9.38;;;;;;;21.83;62.83;95516.06;5006420;28;20111;-84
2022/07/06 07:18:54;;;;;;;13.88;9.93;;;;;;;21.88;63.28;95509.84;5006832;28;20334;-82
2022/07/06 07:21:19;;;;;;;13.63;9.98;;;;;;;21.99;62.78;95505.38;5005889;28;20037;-83
2022/07/06 07:23:45;;;;;;;12.30;10.20;;;;;;;22.10;63.00;95503.66;5006916;28;20037;-83
2022/07/06 07:26:10;;;;;;;14.52;10.63;;;;;;;22.05;62.68;95507.13;4989646;28;20029;-83
2022/07/06 07:28:36;;;;;;;12.63;10.10;;;;;;;21.96;62.46;95506.72;5007982;28;20034;-83
2022/07/06 07:31:01;;;;;;;13.48;10.68;;;;;;;22.05;61.58;95507.13;4989739;28;20041;-82
2022/07/06 07:33:26;;;;;;;15.88;11.00;;;;;;;22.21;61.80;95507.38;5006042;28;20026;-82
2022/07/06 07:35:52;;;;;;;13.18;10.20;;;;;;;22.34;61.34;95503.47;5006121;28;20491;-83
2022/07/06 07:38:17;;;;;;;13.00;10.85;;;;;;;22.60;60.74;95498.41;5007139;28;20026;-83
2022/07/06 07:40:43;;;;;;;15.73;11.20;;;;;;;22.68;60.53;95494.41;5007888;28;20408;-83
2022/07/06 07:43:08;;;;;;;14.52;10.55;;;;;;;22.43;61.14;95501.13;4988986;28;20052;-82
2022/07/06 07:45:34;;;;;;;15.18;11.50;;;;;;;22.32;61.14;95506.44;4990416;28;20030;-84
2022/07/06 07:47:59;;;;;;;11.98;9.93;;;;;;;22.53;60.09;95506.75;5005669;28;20026;-83
2022/07/06 07:50:26;;;;;;;14.02;10.70;;;;;;;22.68;60.53;95503.41;5006179;28;20026;-84
2022/07/06 07:52:52;;;;;;;13.27;10.93;;;;;;;22.58;60.92;95495.06;5007484;28;20611;-84
2022/07/06 07:55:17;;;;;;;14.10;11.70;;;;;;;22.72;59.86;95496.38;4989151;28;20030;-82
2022/07/06 07:57:42;;;;;;;14.43;10.70;;;;;;;22.56;60.84;95503.50;4989605;28;20021;-82
2022/07/06 08:00:09;;;;;;;11.20;9.75;;;;;;;22.63;59.56;95499.78;4988673;28;20566;-81
2022/07/06 08:02:34;;;;;;;11.55;9.65;;;;;;;23.06;59.49;95498.16;5006445;28;20026;-83
2022/07/06 08:04:59;;;;;;;11.27;9.55;;;;;;;23.22;58.61;95492.84;5021531;28;20029;-82
2022/07/06 08:07:25;;;;;;;10.63;9.35;;;;;;;23.25;57.90;95492.34;5006067;28;20064;-82
2022/07/06 08:09:50;;;;;;;10.52;9.45;;;;;;;23.23;58.87;95497.22;5005587;28;20034;-82
2022/07/06 08:12:16;;;;;;;10.85;9.50;;;;;;;23.07;58.77;95499.81;5005368;28;20029;-82
2022/07/06 08:14:41;;;;;;;14.48;9.82;;;;;;;23.06;59.62;95500.06;5008027;28;20056;-81
2022/07/06 08:17:07;;;;;;;10.57;9.27;;;;;;;23.30;58.46;95497.88;4989235;28;20030;-82
2022/07/06 08:19:32;;;;;;;10.68;9.38;;;;;;;23.41;57.78;95496.09;5006609;28;20092;-81
2022/07/06 08:21:58;;;;;;;11.45;9.25;;;;;;;23.57;57.35;95507.19;5005309;28;20343;-82
2022/07/06 08:24:23;;;;;;;9.30;8.23;;;;;;;23.67;55.85;95503.72;4989714;28;20018;-82
2022/07/06 08:26:48;;;;;;;10.07;7.93;;;;;;;23.66;56.59;95502.09;5004634;28;20026;-84
2022/07/06 08:29:14;;;;;;;10.73;8.40;;;;;;;23.71;56.82;95496.66;5005460;28;20084;-83
2022/07/06 08:31:39;;;;;;;12.10;8.52;;;;;;;23.85;55.45;95491.59;4973140;28;20519;-83
2022/07/06 08:34:05;;;;;;;11.45;9.07;;;;;;;23.35;58.11;95486.16;5006091;28;20400;-81
2022/07/06 08:36:30;;;;;;;13.13;10.43;;;;;;;23.34;59.35;95490.78;4972981;28;20033;-82
2022/07/06 08:38:56;;;;;;;10.77;9.43;;;;;;;23.37;58.39;95491.38;4988468;28;20037;-82
2022/07/06 08:41:23;;;;;;;12.20;10.35;;;;;;;23.52;58.23;95488.81;5006554;28;20442;-84
2022/07/06 08:43:49;;;;;;;10.98;9.73;;;;;;;23.33;58.38;95491.03;4988746;28;20030;-82
2022/07/06 08:46:14;;;;;;;11.98;9.63;;;;;;;23.48;58.07;95492.31;4989255;28;20389;-83
2022/07/06 08:48:40;;;;;;;11.90;9.43;;;;;;;23.42;57.80;95488.72;5005021;28;20026;-81
2022/07/06 08:51:05;;;;;;;12.10;9.90;;;;;;;23.54;57.45;95488.56;5007606;28;20036;-82
2022/07/06 08:53:31;;;;;;;11.50;9.45;;;;;;;23.55;57.02;95490.22;5022065;28;20107;-82
2022/07/06 08:55:57;;;;;;;12.20;10.27;;;;;;;23.42;58.31;95499.66;5004618;28;20110;-82
2022/07/06 08:58:29;;;;;;;12.90;10.82;;;;;;;23.44;57.96;95495.56;5005332;28;20036;-83
2022/07/06 09:00:54;;;;;;;14.63;11.05;;;;;;;23.16;59.51;95497.44;4988504;28;20033;-82
2022/07/06 09:03:20;;;;;;;12.40;10.52;;;;;;;23.32;58.81;95495.72;4989142;28;20034;-83
2022/07/06 09:05:46;;;;;;;16.80;10.88;;;;;;;23.33;58.51;95499.25;5020861;28;20088;-82
2022/07/06 09:08:11;;;;;;;14.60;10.70;;;;;;;23.02;59.39;95510.66;4988588;28;20026;-82
2022/07/06 09:10:37;;;;;;;12.55;10.75;;;;;;;23.09;59.05;95500.38;5004975;28;20125;-82
2022/07/06 09:13:06;;;;;;;13.82;10.35;;;;;;;22.98;59.38;95495.88;5004661;28;20029;-82
2022/07/06 09:15:33;;;;;;;12.00;10.05;;;;;;;23.06;59.76;95497.31;5006261;28;20041;-81
2022/07/06 09:17:58;;;;;;;11.82;10.40;;;;;;;23.15;58.69;95494.97;5004604;28;20033;-83
2022/07/06 09:20:24;;;;;;;15.07;10.43;;;;;;;23.10;59.00;95498.47;4988859;28;20026;-82
2022/07/06 09:22:49;;;;;;;12.75;10.80;;;;;;;23.00;59.18;95506.53;4971687;28;20495;-82
2022/07/06 09:25:15;;;;;;;16.00;11.52;;;;;;;23.12;58.89;95506.44;4972439;28;20053;-82
2022/07/06 09:27:49;;;;;;;13.45;10.90;;;;;;;23.30;58.05;95500.59;4972537;28;20397;-81
2022/07/06 09:30:15;;;;;;;15.90;12.10;;;;;;;23.31;58.31;95502.25;5020728;28;20110;-83
2022/07/06 09:32:42;;;;;;;14.70;12.57;;;;;;;23.28;59.24;95499.22;4988756;28;20551;-84
2022/07/06 09:35:08;;;;;;;14.82;12.23;;;;;;;23.17;58.80;95511.94;5004640;28;20492;-81
2022/07/06 09:37:34;;;;;;;12.82;11.48;;;;;;;23.33;58.18;95502.81;5006537;28;20595;-82
2022/07/06 09:39:59;;;;;;;17.83;12.25;;;;;;;23.34;57.74;95498.19;5008196;28;20022;-81
2022/07/06 09:42:26;;;;;;;16.58;12.45;;;;;;;23.10;58.52;95490.28;4992472;28;20053;-83
2022/07/06 09:44:51;;;;;;;14.35;12.27;;;;;;;22.88;59.13;95493.81;5008156;28;20026;-82
2022/07/06 09:47:17;;;;;;;14.85;13.10;;;;;;;23.00;59.51;95490.97;5008419;28;20412;-81
2022/07/06 09:49:42;;;;;;;14.45;11.98;;;;;;;23.10;57.81;95487.53;4991784;28;20042;-82
2022/07/06 09:52:09;;;;;;;15.88;12.68;;;;;;;23.33;58.24;95485.56;5009300;28;20486;-81
2022/07/06 09:54:35;;;;;;;16.15;12.77;;;;;;;23.36;58.68;95478.78;5009574;28;20030;-82
2022/07/06 09:57:00;;;;;;;14.32;12.23;;;;;;;23.48;57.51;95484.94;5007455;28;20030;-83
2022/07/06 09:59:28;;;;;;;15.13;12.07;;;;;;;23.66;57.30;95482.94;5009721;28;20057;-82
2022/07/06 10:02:14;;;;;;;14.07;12.27;;;;;;;23.59;57.60;95488.59;5008979;28;20080;-82
2022/07/06 10:04:39;;;;;;;16.23;12.85;;;;;;;23.36;57.49;95482.31;5009082;28;20108;-82
2022/07/06 10:07:05;;;;;;;13.43;11.80;;;;;;;23.33;57.49;95482.84;4992007;28;20492;-82
2022/07/06 10:09:30;;;;;;;16.20;12.80;;;;;;;23.36;57.73;95481.53;4974781;28;20029;-82
2022/07/06 10:12:00;;;;;;;15.98;12.40;;;;;;;23.25;57.64;95467.72;5008350;28;20025;-82
2022/07/06 10:14:27;;;;;;;14.00;12.00;;;;;;;23.23;57.16;95475.34;4990995;28;20105;-81
2022/07/06 10:16:53;;;;;;;16.90;12.43;;;;;;;23.33;58.16;95480.94;4992327;28;20026;-83
2022/07/06 10:19:21;;;;;;;15.45;12.25;;;;;;;23.31;57.11;95474.88;4991422;28;20373;-81
2022/07/06 10:21:46;;;;;;;12.95;11.40;;;;;;;23.41;56.19;95476.09;4991385;28;20110;-81
2022/07/06 10:24:12;;;;;;;15.23;12.48;;;;;;;23.37;57.44;95469.47;4991322;28;20030;-83
2022/07/06 10:26:37;;;;;;;12.55;11.25;;;;;;;23.31;56.50;95474.09;4990987;28;20018;-82
2022/07/06 10:29:03;;;;;;;13.25;10.57;;;;;;;23.30;56.71;95467.78;5008023;28;20025;-81
2022/07/06 10:31:29;;;;;;;15.02;11.80;;;;;;;23.28;56.53;95461.72;5007005;28;20026;-82
2022/07/06 10:33:59;;;;;;;14.88;12.40;;;;;;;23.33;57.70;95453.56;4991390;28;20026;-84
2022/07/06 10:36:24;;;;;;;16.33;12.35;;;;;;;23.37;57.10;95464.00;4990886;28;20114;-81
2022/07/06 10:38:50;;;;;;;14.27;12.88;;;;;;;23.33;56.75;95459.06;5007407;28;20026;-83
2022/07/06 10:41:16;;;;;;;15.05;13.00;;;;;;;23.45;57.45;95449.88;4990938;28;20431;-81
2022/07/06 10:43:42;;;;;;;16.13;12.95;;;;;;;23.42;56.65;95450.41;4990536;28;20053;-81
2022/07/06 10:46:11;;;;;;;14.70;12.63;;;;;;;23.52;56.51;95453.22;5007095;28;20426;-82
2022/07/06 10:48:37;;;;;;;15.60;12.98;;;;;;;23.51;56.39;95454.31;4974334;28;20423;-83
2022/07/06 10:51:04;;;;;;;17.60;12.95;;;;;;;23.52;56.17;95461.44;4974770;28;20022;-82
2022/07/06 10:53:40;;;;;;;16.48;13.73;;;;;;;23.63;56.99;95465.13;5007624;28;20076;-82
2022/07/06 10:56:09;;;;;;;14.80;13.18;;;;;;;23.95;54.73;95458.81;5007428;28;20115;-82
2022/07/06 10:58:36;;;;;;;14.98;13.38;;;;;;;23.85;55.78;95452.41;4990663;28;20025;-82
2022/07/06 11:01:01;;;;;;;16.23;14.00;;;;;;;23.92;55.59;95453.03;4990072;28;20496;-83
2022/07/06 11:03:46;;;;;;;17.52;13.32;;;;;;;23.78;55.30;95455.38;5006862;28;20065;-81
2022/07/06 11:06:13;;;;;;;15.38;13.07;;;;;;;23.94;55.20;95456.34;5006210;28;20030;-83
2022/07/06 11:08:50;;;;;;;15.27;13.30;;;;;;;23.98;54.99;95446.50;5007152;28;20037;-82
2022/07/06 11:11:21;;;;;;;14.90;13.45;;;;;;;24.11;54.48;95444.38;5006553;28;20029;-81
2022/07/06 11:13:49;;;;;;;15.75;14.05;;;;;;;24.14;55.08;95449.34;5007093;28;20037;-82
2022/07/06 11:16:18;;;;;;;17.45;13.43;;;;;;;23.94;55.02;95451.66;5007966;28;20030;-82
2022/07/06 11:19:03;;;;;;;15.48;12.65;;;;;;;24.10;54.32;95448.22;4989742;28;20523;-82
2022/07/06 11:21:41;;;;;;;14.82;13.32;;;;;;;24.11;54.40;95450.69;4991223;28;20536;-82
2022/07/06 11:24:11;;;;;;;14.63;13.15;;;;;;;24.13;53.85;95453.19;5005849;28;20113;-82